createdAt,value
2023-04-10T00:01:46.282Z,98256.00
2023-04-10T00:04:15.700Z,98255.00
2023-04-10T00:06:44.260Z,98241.00
2023-04-10T00:09:12.469Z,98244.00
2023-04-10T00:11:40.692Z,98243.00
2023-04-10T00:14:10.268Z,98242.00
2023-04-10T00:16:38.481Z,98243.00
2023-04-10T00:19:08.019Z,98245.00
2023-04-10T00:21:36.319Z,98237.00
2023-04-10T00:24:05.473Z,98239.00
2023-04-10T00:26:33.691Z,98230.00
2023-04-10T00:29:01.875Z,98225.00
2023-04-10T00:31:32.132Z,98225.00
2023-04-10T00:34:00.421Z,98219.00
2023-04-10T00:36:28.951Z,98221.00
2023-04-10T00:38:57.451Z,98215.00
2023-04-10T00:41:25.586Z,98233.00
2023-04-10T00:43:57.539Z,98232.00
2023-04-10T00:46:26.181Z,98212.00
2023-04-10T00:48:57.439Z,98212.00
2023-04-10T00:51:26.487Z,98206.00
2023-04-10T00:53:55.716Z,98210.00
2023-04-10T00:56:26.000Z,98207.00
2023-04-10T00:58:54.166Z,98207.00
2023-04-10T01:01:22.495Z,98208.00
2023-04-10T01:03:51.281Z,98210.00
2023-04-10T01:06:40.608Z,98218.00
2023-04-10T01:09:16.987Z,98216.00
2023-04-10T01:11:53.435Z,98217.00
2023-04-10T01:14:33.998Z,98220.00
2023-04-10T01:17:08.919Z,98218.00
2023-04-10T01:20:10.000Z,98228.00
2023-04-10T01:22:53.127Z,98221.00
2023-04-10T01:25:40.795Z,98217.00
2023-04-10T01:28:52.692Z,98213.00
2023-04-10T01:31:28.183Z,98234.00
2023-04-10T01:34:06.192Z,98216.00
2023-04-10T01:36:41.671Z,98209.00
2023-04-10T01:39:12.242Z,98200.00
2023-04-10T01:41:46.194Z,98205.00
2023-04-10T01:44:19.109Z,98203.00
2023-04-10T01:46:48.236Z,98196.00
2023-04-10T01:49:18.827Z,98201.00
2023-04-10T01:51:48.789Z,98209.00
2023-04-10T01:54:18.589Z,98196.00
2023-04-10T01:56:46.870Z,98196.00
2023-04-10T01:59:18.925Z,98204.00
2023-04-10T02:01:47.156Z,98222.00
2023-04-10T02:04:15.544Z,98228.00
2023-04-10T02:06:55.342Z,98220.00
2023-04-10T02:09:32.094Z,98218.00
2023-04-10T02:12:06.676Z,98219.00
2023-04-10T02:14:42.826Z,98209.00
2023-04-10T02:17:14.099Z,98217.00
2023-04-10T02:19:44.345Z,98217.00
2023-04-10T02:22:16.999Z,98216.00
2023-04-10T02:24:45.440Z,98206.00
2023-04-10T02:27:13.596Z,98208.00
2023-04-10T02:29:43.138Z,98213.00
2023-04-10T02:32:11.746Z,98198.00
2023-04-10T02:34:40.699Z,98203.00
2023-04-10T02:37:08.885Z,98200.00
2023-04-10T02:39:37.227Z,98206.00
2023-04-10T02:42:05.990Z,98210.00
2023-04-10T02:44:34.299Z,98205.00
2023-04-10T02:47:04.082Z,98215.00
2023-04-10T02:49:35.730Z,98215.00
2023-04-10T02:52:10.957Z,98223.00
2023-04-10T02:54:39.472Z,98210.00
2023-04-10T02:57:07.903Z,98210.00
2023-04-10T02:59:36.336Z,98209.00
2023-04-10T03:02:08.458Z,98202.00
2023-04-10T03:04:39.104Z,98217.00
2023-04-10T03:07:07.498Z,98216.00
2023-04-10T03:09:37.313Z,98223.00
2023-04-10T03:12:05.659Z,98215.00
2023-04-10T03:14:33.847Z,98228.00
2023-04-10T03:17:01.995Z,98216.00
2023-04-10T03:19:31.622Z,98225.00
2023-04-10T03:21:59.797Z,98209.00
2023-04-10T03:24:28.879Z,98225.00
2023-04-10T03:26:58.626Z,98214.00
2023-04-10T03:29:26.826Z,98233.00
2023-04-10T03:31:57.516Z,98224.00
2023-04-10T03:34:26.659Z,98214.00
2023-04-10T03:36:56.213Z,98215.00
2023-04-10T03:39:24.679Z,98219.00
2023-04-10T03:41:52.872Z,98213.00
2023-04-10T03:44:22.528Z,98219.00
2023-04-10T03:46:50.902Z,98224.00
2023-04-10T03:49:19.410Z,98209.00
2023-04-10T03:51:48.081Z,98202.00
2023-04-10T03:54:17.601Z,98210.00
2023-04-10T03:56:45.771Z,98206.00
2023-04-10T03:59:14.111Z,98206.00
2023-04-10T04:01:42.849Z,98217.00
2023-04-10T04:04:12.672Z,98213.00
2023-04-10T04:07:14.554Z,98212.00
2023-04-10T04:09:53.776Z,98216.00
2023-04-10T04:12:35.658Z,98187.00
2023-04-10T04:15:30.102Z,98199.00
2023-04-10T04:18:16.827Z,98202.00
2023-04-10T04:20:52.670Z,98202.00
2023-04-10T04:23:34.105Z,98197.00
2023-04-10T04:26:18.266Z,98196.00
2023-04-10T04:29:09.257Z,98191.00
2023-04-10T04:31:40.103Z,98202.00
2023-04-10T04:34:16.411Z,98194.00
2023-04-10T04:37:05.488Z,98196.00
2023-04-10T04:39:36.941Z,98197.00
2023-04-10T04:42:16.357Z,98206.00
2023-04-10T04:45:03.148Z,98217.00
2023-04-10T04:48:03.503Z,98224.00
2023-04-10T04:50:52.077Z,98219.00
2023-04-10T04:53:43.126Z,98213.00
2023-04-10T04:56:39.696Z,98215.00
2023-04-10T04:59:24.664Z,98219.00
2023-04-10T05:02:11.327Z,98228.00
2023-04-10T05:04:45.686Z,98231.00
2023-04-10T05:07:36.795Z,98236.00
2023-04-10T05:10:25.682Z,98230.00
2023-04-10T05:13:20.917Z,98226.00
2023-04-10T05:16:11.195Z,98232.00
2023-04-10T05:18:58.377Z,98233.00
2023-04-10T05:21:46.903Z,98229.00
2023-04-10T05:24:33.972Z,98230.00
2023-04-10T05:27:14.446Z,98254.00
2023-04-10T05:30:06.972Z,98244.00
2023-04-10T05:32:39.354Z,98230.00
2023-04-10T05:35:26.312Z,98237.00
2023-04-10T05:38:13.146Z,98239.00
2023-04-10T05:40:57.404Z,98227.00
2023-04-10T05:43:39.181Z,98219.00
2023-04-10T05:46:14.167Z,98213.00
2023-04-10T05:49:16.768Z,98218.00
2023-04-10T05:52:03.723Z,98226.00
2023-04-10T05:54:44.033Z,98230.00
2023-04-10T05:57:27.486Z,98230.00
2023-04-10T06:00:17.902Z,98235.00
2023-04-10T06:03:27.479Z,98234.00
2023-04-10T06:06:03.391Z,98221.00
2023-04-10T06:08:32.518Z,98219.00
2023-04-10T06:11:01.217Z,98226.00
2023-04-10T06:13:32.361Z,98215.00
2023-04-10T06:16:01.978Z,98228.00
2023-04-10T06:18:31.787Z,98215.00
2023-04-10T06:21:01.956Z,98219.00
2023-04-10T06:23:30.624Z,98209.00
2023-04-10T06:25:58.852Z,98206.00
2023-04-10T06:28:27.062Z,98211.00
2023-04-10T06:30:58.731Z,98217.00
2023-04-10T06:33:32.633Z,98200.00
2023-04-10T06:36:02.427Z,98214.00
2023-04-10T06:38:37.628Z,98209.00
2023-04-10T06:41:07.573Z,98210.00
2023-04-10T06:43:36.393Z,98199.00
2023-04-10T06:46:05.598Z,98206.00
2023-04-10T06:48:34.708Z,98197.00
2023-04-10T06:51:04.698Z,98218.00
2023-04-10T06:53:32.906Z,98218.00
2023-04-10T06:56:03.383Z,98210.00
2023-04-10T06:58:32.213Z,98211.00
2023-04-10T07:01:04.337Z,98202.00
2023-04-10T07:03:33.815Z,98212.00
2023-04-10T07:06:03.587Z,98207.00
2023-04-10T07:08:31.813Z,98199.00
2023-04-10T07:11:00.007Z,98211.00
2023-04-10T07:13:28.190Z,98217.00
2023-04-10T07:15:56.521Z,98202.00
2023-04-10T07:18:24.748Z,98204.00
2023-04-10T07:20:54.014Z,98220.00
2023-04-10T07:23:23.638Z,98207.00
2023-04-10T07:25:52.755Z,98211.00
2023-04-10T07:28:20.933Z,98212.00
2023-04-10T07:30:49.075Z,98215.00
2023-04-10T07:33:17.440Z,98202.00
2023-04-10T07:35:45.959Z,98209.00
2023-04-10T07:38:14.181Z,98201.00
2023-04-10T07:40:43.749Z,98207.00
2023-04-10T07:43:11.962Z,98194.00
2023-04-10T07:45:40.236Z,98200.00
2023-04-10T07:48:08.629Z,98200.00
2023-04-10T07:50:37.125Z,98191.00
2023-04-10T07:53:08.157Z,98189.00
2023-04-10T07:55:39.977Z,98185.00
2023-04-10T07:58:09.618Z,98187.00
2023-04-10T08:00:38.322Z,98186.00
2023-04-10T08:03:07.324Z,98172.00
2023-04-10T08:05:36.322Z,98171.00
2023-04-10T08:08:04.581Z,98170.00
2023-04-10T08:10:32.752Z,98184.00
2023-04-10T08:13:01.040Z,98181.00
2023-04-10T08:15:30.629Z,98185.00
2023-04-10T08:17:59.085Z,98185.00
2023-04-10T08:20:28.227Z,98181.00
2023-04-10T08:22:59.134Z,98176.00
2023-04-10T08:25:34.371Z,98181.00
2023-04-10T08:28:02.558Z,98175.00
2023-04-10T08:30:32.145Z,98173.00
2023-04-10T08:33:00.351Z,98169.00
2023-04-10T08:35:28.537Z,98170.00
2023-04-10T08:38:11.709Z,98173.00
2023-04-10T08:40:41.535Z,98169.00
2023-04-10T08:43:09.778Z,98158.00
2023-04-10T08:45:42.269Z,98176.00
2023-04-10T08:48:12.821Z,98170.00
2023-04-10T08:50:46.687Z,98164.00
2023-04-10T08:53:16.484Z,98157.00
2023-04-10T08:55:46.994Z,98168.00
2023-04-10T08:58:16.507Z,98156.00
2023-04-10T09:00:46.564Z,98161.00
2023-04-10T09:03:16.677Z,98155.00
2023-04-10T09:05:45.098Z,98159.00
2023-04-10T09:08:16.440Z,98159.00
2023-04-10T09:10:44.611Z,98162.00
2023-04-10T09:13:12.831Z,98181.00
2023-04-10T09:16:01.300Z,98156.00
2023-04-10T09:18:44.572Z,98166.00
2023-04-10T09:21:15.361Z,98153.00
2023-04-10T09:23:44.412Z,98150.00
2023-04-10T09:26:29.598Z,98155.00
2023-04-10T09:29:01.241Z,98141.00
2023-04-10T09:31:34.595Z,98153.00
2023-04-10T09:34:12.841Z,98144.00
2023-04-10T09:36:42.285Z,98135.00
2023-04-10T09:39:12.960Z,98147.00
2023-04-10T09:41:52.736Z,98137.00
2023-04-10T09:44:32.187Z,98124.00
2023-04-10T09:47:18.261Z,98134.00
2023-04-10T09:49:48.392Z,98127.00
2023-04-10T09:52:21.340Z,98126.00
2023-04-10T09:54:49.760Z,98118.00
2023-04-10T09:57:20.189Z,98111.00
2023-04-10T09:59:52.118Z,98119.00
2023-04-10T10:02:24.612Z,98114.00
2023-04-10T10:04:54.677Z,98092.00
2023-04-10T10:07:25.327Z,98099.00
2023-04-10T10:09:54.521Z,98097.00
2023-04-10T10:12:27.927Z,98084.00
2023-04-10T10:15:02.950Z,98078.00
2023-04-10T10:17:39.555Z,98085.00
2023-04-10T10:20:11.221Z,98078.00
2023-04-10T10:22:39.775Z,98068.00
2023-04-10T10:25:10.602Z,98075.00
2023-04-10T10:27:41.042Z,98073.00
2023-04-10T10:30:28.221Z,98072.00
2023-04-10T10:33:00.641Z,98059.00
2023-04-10T10:35:31.812Z,98055.00
2023-04-10T10:38:02.268Z,98061.00
2023-04-10T10:40:34.127Z,98053.00
2023-04-10T10:43:16.139Z,98048.00
2023-04-10T10:45:55.949Z,98050.00
2023-04-10T10:48:25.770Z,98042.00
2023-04-10T10:50:58.739Z,98038.00
2023-04-10T10:53:40.374Z,98055.00
2023-04-10T10:56:36.701Z,98032.00
2023-04-10T10:59:04.973Z,98033.00
2023-04-10T11:01:33.340Z,98039.00
2023-04-10T11:04:45.695Z,98033.00
2023-04-10T11:07:14.730Z,98017.00
2023-04-10T11:09:51.056Z,98012.00
2023-04-10T11:12:24.014Z,98011.00
2023-04-10T11:15:00.519Z,98008.00
2023-04-10T11:17:49.655Z,98010.00
2023-04-10T11:20:21.745Z,98023.00
2023-04-10T11:23:11.723Z,97994.00
2023-04-10T11:25:51.301Z,98000.00
2023-04-10T11:28:39.230Z,97999.00
2023-04-10T11:31:19.557Z,97990.00
2023-04-10T11:33:49.601Z,98004.00
2023-04-10T11:36:19.172Z,97994.00
2023-04-10T11:38:58.588Z,97995.00
2023-04-10T11:41:31.962Z,97993.00
2023-04-10T11:44:01.804Z,97985.00
2023-04-10T11:46:31.018Z,97993.00
2023-04-10T11:49:01.604Z,97987.00
2023-04-10T11:51:32.453Z,97984.00
2023-04-10T11:54:08.666Z,97986.00
2023-04-10T11:56:38.323Z,97984.00
2023-04-10T11:59:10.535Z,97970.00
2023-04-10T12:01:42.080Z,97960.00
2023-04-10T12:04:18.945Z,97962.00
2023-04-10T12:06:50.853Z,97953.00
2023-04-10T12:09:22.295Z,97951.00
2023-04-10T12:11:53.185Z,97948.00
2023-04-10T12:14:22.668Z,97954.00
2023-04-10T12:16:52.618Z,97956.00
2023-04-10T12:19:21.638Z,97952.00
2023-04-10T12:21:51.539Z,97953.00
2023-04-10T12:24:45.045Z,97951.00
2023-04-10T12:27:20.413Z,97946.00
2023-04-10T12:29:51.003Z,97958.00
2023-04-10T12:32:19.947Z,97950.00
2023-04-10T12:34:52.518Z,97951.00
2023-04-10T12:37:22.307Z,97939.00
2023-04-10T12:39:51.834Z,97943.00
2023-04-10T12:42:22.716Z,97936.00
2023-04-10T12:44:57.127Z,97932.00
2023-04-10T12:47:26.987Z,97934.00
2023-04-10T12:50:10.058Z,97928.00
2023-04-10T12:52:41.964Z,97918.00
2023-04-10T12:55:15.467Z,97912.00
2023-04-10T12:57:45.921Z,97907.00
2023-04-10T13:00:17.978Z,97902.00
2023-04-10T13:02:47.765Z,97895.00
2023-04-10T13:05:16.530Z,97900.00
2023-04-10T13:07:46.168Z,97899.00
2023-04-10T13:10:14.458Z,97895.00
2023-04-10T13:12:44.186Z,97884.00
2023-04-10T13:15:12.402Z,97889.00
2023-04-10T13:17:41.675Z,97882.00
2023-04-10T13:20:13.367Z,97874.00
2023-04-10T13:22:41.680Z,97881.00
2023-04-10T13:25:11.496Z,97878.00
2023-04-10T13:27:39.782Z,97877.00
2023-04-10T13:30:09.822Z,97872.00
2023-04-10T13:32:38.044Z,97875.00
2023-04-10T13:35:07.141Z,97866.00
2023-04-10T13:37:35.446Z,97851.00
2023-04-10T13:40:05.047Z,97852.00
2023-04-10T13:42:36.811Z,97850.00
2023-04-10T13:45:07.208Z,97850.00
2023-04-10T13:47:35.720Z,97844.00
2023-04-10T13:50:03.987Z,97843.00
2023-04-10T13:52:32.162Z,97839.00
2023-04-10T13:55:00.408Z,97842.00
2023-04-10T13:57:28.665Z,97837.00
2023-04-10T13:59:58.279Z,97824.00
2023-04-10T14:02:26.648Z,97822.00
2023-04-10T14:04:54.964Z,97815.00
2023-04-10T14:07:23.238Z,97817.00
2023-04-10T14:09:51.390Z,97810.00
2023-04-10T14:12:20.959Z,97816.00
2023-04-10T14:14:49.116Z,97798.00
2023-04-10T14:17:18.962Z,97802.00
2023-04-10T14:19:48.782Z,97788.00
2023-04-10T14:22:16.962Z,97786.00
2023-04-10T14:24:47.672Z,97785.00
2023-04-10T14:27:16.802Z,97784.00
2023-04-10T14:29:54.242Z,97785.00
2023-04-10T14:32:24.705Z,97773.00
2023-04-10T14:34:52.913Z,97780.00
2023-04-10T14:37:22.367Z,97784.00
2023-04-10T14:39:50.878Z,97770.00
2023-04-10T14:42:19.057Z,97760.00
2023-04-10T14:44:47.174Z,97765.00
2023-04-10T14:47:15.365Z,97771.00
2023-04-10T14:49:44.945Z,97760.00
2023-04-10T14:52:13.078Z,97760.00
2023-04-10T14:54:41.302Z,97754.00
2023-04-10T14:57:09.750Z,97766.00
2023-04-10T14:59:37.961Z,97750.00
2023-04-10T15:02:06.232Z,97747.00
2023-04-10T15:04:34.724Z,97746.00
2023-04-10T15:07:04.734Z,97743.00
2023-04-10T15:09:33.625Z,97741.00
2023-04-10T15:12:01.993Z,97731.00
2023-04-10T15:14:30.176Z,97730.00
2023-04-10T15:16:58.368Z,97731.00
2023-04-10T15:19:26.622Z,97729.00
2023-04-10T15:21:55.737Z,97725.00
2023-04-10T15:24:25.304Z,97731.00
2023-04-10T15:26:53.935Z,97732.00
2023-04-10T15:29:22.219Z,97725.00
2023-04-10T15:31:51.064Z,97716.00
2023-04-10T15:34:19.224Z,97711.00
2023-04-10T15:36:47.433Z,97701.00
2023-04-10T15:39:15.984Z,97702.00
2023-04-10T15:41:45.688Z,97705.00
2023-04-10T15:44:13.889Z,97701.00
2023-04-10T15:46:42.357Z,97690.00
2023-04-10T15:49:11.096Z,97696.00
2023-04-10T15:51:39.425Z,97687.00
2023-04-10T15:54:09.009Z,97681.00
2023-04-10T15:56:37.359Z,97676.00
2023-04-10T15:59:06.965Z,97683.00
2023-04-10T16:01:35.286Z,97677.00
2023-04-10T16:04:03.776Z,97675.00
2023-04-10T16:06:32.073Z,97672.00
2023-04-10T16:09:00.239Z,97669.00
2023-04-10T16:11:28.657Z,97674.00
2023-04-10T16:13:56.996Z,97680.00
2023-04-10T16:16:27.031Z,97676.00
2023-04-10T16:18:55.506Z,97669.00
2023-04-10T16:21:23.708Z,97670.00
2023-04-10T16:23:52.116Z,97673.00
2023-04-10T16:26:21.377Z,97664.00
2023-04-10T16:28:49.608Z,97674.00
2023-04-10T16:31:17.895Z,97670.00
2023-04-10T16:33:47.461Z,97669.00
2023-04-10T16:36:15.687Z,97671.00
2023-04-10T16:38:44.561Z,97652.00
2023-04-10T16:41:13.109Z,97654.00
2023-04-10T16:43:41.406Z,97655.00
2023-04-10T16:46:09.661Z,97658.00
2023-04-10T16:48:37.865Z,97650.00
2023-04-10T16:51:09.832Z,97635.00
2023-04-10T16:53:38.212Z,97637.00
2023-04-10T16:56:08.145Z,97638.00
2023-04-10T16:58:37.152Z,97626.00
2023-04-10T17:01:16.239Z,97619.00
2023-04-10T17:03:44.761Z,97630.00
2023-04-10T17:06:14.537Z,97621.00
2023-04-10T17:08:43.167Z,97626.00
2023-04-10T17:11:12.943Z,97621.00
2023-04-10T17:13:41.433Z,97602.00
2023-04-10T17:16:10.817Z,97609.00
2023-04-10T17:18:39.107Z,97611.00
2023-04-10T17:21:11.618Z,97604.00
2023-04-10T17:23:43.465Z,97615.00
2023-04-10T17:26:15.882Z,97600.00
2023-04-10T17:28:46.348Z,97594.00
2023-04-10T17:31:15.423Z,97592.00
2023-04-10T17:33:47.027Z,97590.00
2023-04-10T17:36:16.265Z,97579.00
2023-04-10T17:38:47.342Z,97565.00
2023-04-10T17:41:17.325Z,97578.00
2023-04-10T17:43:45.585Z,97570.00
2023-04-10T17:46:17.379Z,97561.00
2023-04-10T17:48:46.797Z,97569.00
2023-04-10T17:51:15.352Z,97562.00
2023-04-10T17:53:46.709Z,97555.00
2023-04-10T17:56:25.395Z,97558.00
2023-04-10T17:58:55.239Z,97559.00
2023-04-10T18:01:24.464Z,97562.00
2023-04-10T18:03:52.947Z,97569.00
2023-04-10T18:06:21.242Z,97569.00
2023-04-10T18:08:50.042Z,97575.00
2023-04-10T18:11:18.295Z,97574.00
2023-04-10T18:13:48.466Z,97559.00
2023-04-10T18:16:17.426Z,97566.00
2023-04-10T18:18:45.722Z,97561.00
2023-04-10T18:21:14.319Z,97560.00
2023-04-10T18:23:44.419Z,97562.00
2023-04-10T18:26:13.595Z,97545.00
2023-04-10T18:28:43.211Z,97547.00
2023-04-10T18:31:15.861Z,97553.00
2023-04-10T18:33:45.465Z,97539.00
2023-04-10T18:36:14.152Z,97532.00
2023-04-10T18:38:43.818Z,97529.00
2023-04-10T18:41:12.154Z,97528.00
2023-04-10T18:43:40.586Z,97522.00
2023-04-10T18:46:09.443Z,97521.00
2023-04-10T18:48:42.547Z,97513.00
2023-04-10T18:51:11.712Z,97518.00
2023-04-10T18:53:40.852Z,97521.00
2023-04-10T18:56:09.845Z,97524.00
2023-04-10T18:58:38.130Z,97523.00
2023-04-10T19:01:06.667Z,97512.00
2023-04-10T19:03:35.113Z,97496.00
2023-04-10T19:06:04.965Z,97489.00
2023-04-10T19:08:33.234Z,97496.00
2023-04-10T19:11:04.874Z,97496.00
2023-04-10T19:13:33.983Z,97502.00
2023-04-10T19:16:05.555Z,97488.00
2023-04-10T19:18:33.872Z,97492.00
2023-04-10T19:21:02.652Z,97490.00
2023-04-10T19:23:32.257Z,97497.00
2023-04-10T19:26:00.503Z,97489.00
2023-04-10T19:28:30.381Z,97485.00
2023-04-10T19:30:58.606Z,97485.00
2023-04-10T19:33:27.055Z,97490.00
2023-04-10T19:35:55.750Z,97483.00
2023-04-10T19:38:24.037Z,97489.00
2023-04-10T19:40:54.673Z,97475.00
2023-04-10T19:43:23.085Z,97493.00
2023-04-10T19:45:52.880Z,97495.00
2023-04-10T19:48:21.341Z,97494.00
2023-04-10T19:50:49.707Z,97494.00
2023-04-10T19:53:17.955Z,97499.00
2023-04-10T19:55:46.448Z,97505.00
2023-04-10T19:58:30.532Z,97488.00
2023-04-10T20:01:05.189Z,97483.00
2023-04-10T20:03:34.285Z,97495.00
2023-04-10T20:06:04.812Z,97489.00
2023-04-10T20:08:33.140Z,97481.00
2023-04-10T20:11:01.977Z,97488.00
2023-04-10T20:13:32.690Z,97502.00
2023-04-10T20:16:02.033Z,97487.00
2023-04-10T20:18:32.572Z,97474.00
2023-04-10T20:21:01.508Z,97470.00
2023-04-10T20:23:30.176Z,97461.00
2023-04-10T20:25:58.811Z,97439.00
2023-04-10T20:28:27.401Z,97435.00
2023-04-10T20:30:57.200Z,97453.00
2023-04-10T20:33:25.783Z,97459.00
2023-04-10T20:35:54.436Z,97467.00
2023-04-10T20:38:22.933Z,97482.00
2023-04-10T20:40:51.654Z,97475.00
2023-04-10T20:43:21.014Z,97463.00
2023-04-10T20:45:49.560Z,97439.00
2023-04-10T20:48:19.396Z,97444.00
2023-04-10T20:50:49.289Z,97446.00
2023-04-10T20:53:17.748Z,97438.00
2023-04-10T20:55:46.272Z,97441.00
2023-04-10T20:58:14.675Z,97442.00
2023-04-10T21:00:43.106Z,97427.00
2023-04-10T21:03:11.592Z,97430.00
2023-04-10T21:05:42.674Z,97419.00
2023-04-10T21:08:12.308Z,97429.00
2023-04-10T21:10:44.106Z,97434.00
2023-04-10T21:13:14.220Z,97422.00
2023-04-10T21:15:42.908Z,97404.00
2023-04-10T21:18:12.046Z,97398.00
2023-04-10T21:20:43.323Z,97402.00
2023-04-10T21:23:11.859Z,97397.00
2023-04-10T21:25:40.444Z,97404.00
2023-04-10T21:28:08.799Z,97405.00
2023-04-10T21:30:37.100Z,97404.00
2023-04-10T21:33:05.537Z,97396.00
2023-04-10T21:35:33.880Z,97390.00
2023-04-10T21:38:03.725Z,97385.00
2023-04-10T21:40:34.156Z,97382.00
2023-04-10T21:43:02.800Z,97390.00
2023-04-10T21:45:31.354Z,97376.00
2023-04-10T21:48:00.757Z,97375.00
2023-04-10T21:50:29.025Z,97376.00
2023-04-10T21:52:57.399Z,97358.00
2023-04-10T21:55:27.195Z,97369.00
2023-04-10T21:57:55.602Z,97353.00
2023-04-10T22:00:23.841Z,97349.00
2023-04-10T22:02:52.746Z,97370.00
2023-04-10T22:05:21.210Z,97352.00
2023-04-10T22:07:49.422Z,97349.00
2023-04-10T22:10:17.997Z,97341.00
2023-04-10T22:12:48.787Z,97329.00
2023-04-10T22:15:17.392Z,97331.00
2023-04-10T22:17:46.411Z,97347.00
2023-04-10T22:20:14.613Z,97336.00
2023-04-10T22:22:42.860Z,97332.00
2023-04-10T22:25:11.317Z,97329.00
2023-04-10T22:27:39.496Z,97330.00
2023-04-10T22:30:11.008Z,97320.00
2023-04-10T22:32:39.253Z,97331.00
2023-04-10T22:35:09.152Z,97325.00
2023-04-10T22:37:37.366Z,97319.00
2023-04-10T22:40:07.671Z,97323.00
2023-04-10T22:42:35.955Z,97316.00
2023-04-10T22:45:04.407Z,97308.00
2023-04-10T22:47:34.096Z,97306.00
2023-04-10T22:50:02.260Z,97287.00
2023-04-10T22:52:30.392Z,97291.00
2023-04-10T22:54:59.073Z,97288.00
2023-04-10T22:57:27.301Z,97278.00
2023-04-10T22:59:55.564Z,97279.00
2023-04-10T23:02:23.908Z,97266.00
2023-04-10T23:04:53.619Z,97260.00
2023-04-10T23:07:21.788Z,97257.00
2023-04-10T23:09:49.963Z,97255.00
2023-04-10T23:12:18.116Z,97256.00
2023-04-10T23:14:46.221Z,97257.00
2023-04-10T23:17:14.423Z,97279.00
2023-04-10T23:19:42.589Z,97249.00
2023-04-10T23:22:12.589Z,97261.00
2023-04-10T23:24:40.773Z,97253.00
2023-04-10T23:27:09.021Z,97240.00
2023-04-10T23:29:37.251Z,97259.00
2023-04-10T23:32:05.861Z,97233.00
2023-04-10T23:34:33.999Z,97235.00
2023-04-10T23:37:02.147Z,97241.00
2023-04-10T23:39:31.662Z,97227.00
2023-04-10T23:41:59.839Z,97223.00
2023-04-10T23:44:28.001Z,97196.00
2023-04-10T23:46:56.288Z,97183.00
2023-04-10T23:49:24.578Z,97169.00
2023-04-10T23:51:52.829Z,97141.00
2023-04-10T23:54:21.000Z,97142.00
2023-04-10T23:56:50.551Z,97141.00
2023-04-10T23:59:19.481Z,97169.00
